Time;durP1;ratioP1;P1;durP2;ratioP2;P2;SDS_P1;SDS_P2;PMS_P1;PMS_P2;Temp;Humidity;BMP_temperature;BMP_pressure;BME280_temperature;BME280_humidity;BME280_pressure;Samples;Min_cycle;Max_cycle;Signal;HPM_P1;HPM_P2
2023/07/02 00:03:21;;;;;;;2.07;1.87;;;;;;;;;;10553136;27;20504;-72
2023/07/02 00:08:22;;;;;;;2.75;2.33;;;;;;;;;;10546678;28;20043;-73
2023/07/02 00:13:22;;;;;;;3.15;2.70;;;;;;;;;;10536815;28;20047;-73
2023/07/02 00:18:23;;;;;;;2.90;2.40;;;;;;;;;;10547942;28;20627;-73
2023/07/02 00:23:23;;;;;;;2.63;2.43;;;;;;;;;;10547604;28;20313;-74
2023/07/02 00:28:24;;;;;;;3.58;2.90;;;;;;;;;;10544803;28;20691;-74
2023/07/02 00:33:24;;;;;;;4.00;3.60;;;;;;;;;;10549674;28;20036;-78
2023/07/02 00:38:25;;;;;;;4.23;3.30;;;;;;;;;;10538275;27;20043;-78
2023/07/02 00:43:26;;;;;;;3.95;3.65;;;;;;;;;;10544966;28;20313;-76
2023/07/02 00:48:26;;;;;;;3.95;3.60;;;;;;;;;;10540375;28;20488;-76
2023/07/02 00:53:27;;;;;;;4.10;3.57;;;;;;;;;;10541594;28;20027;-76
2023/07/02 00:58:27;;;;;;;4.73;3.40;;;;;;;;;;10551334;27;20292;-75
2023/07/02 01:03:28;;;;;;;4.30;3.78;;;;;;;;;;10542274;28;21191;-75
2023/07/02 01:08:29;;;;;;;3.90;3.47;;;;;;;;;;10531692;28;20066;-74
2023/07/02 01:13:29;;;;;;;5.80;4.07;;;;;;;;;;10534138;28;20036;-73
2023/07/02 01:18:30;;;;;;;4.53;4.10;;;;;;;;;;10543423;28;20585;-75
2023/07/02 01:23:30;;;;;;;4.18;3.63;;;;;;;;;;10546574;27;20297;-76
2023/07/02 01:28:38;;;;;;;3.83;3.42;;;;;;;;;;10546758;27;20098;-72
2023/07/02 01:33:39;;;;;;;4.55;3.90;;;;;;;;;;10527485;28;20123;-73
2023/07/02 01:38:39;;;;;;;4.60;4.20;;;;;;;;;;10548454;28;20035;-74
2023/07/02 01:43:39;;;;;;;5.60;4.00;;;;;;;;;;10547929;28;20039;-73
2023/07/02 01:48:40;;;;;;;4.10;3.57;;;;;;;;;;10540236;28;20890;-75
2023/07/02 01:53:40;;;;;;;4.53;4.00;;;;;;;;;;10546977;28;20403;-77
2023/07/02 01:58:40;;;;;;;4.93;3.53;;;;;;;;;;10533892;28;20376;-75
2023/07/02 02:03:41;;;;;;;5.03;3.70;;;;;;;;;;10528245;28;20139;-76
2023/07/02 02:08:42;;;;;;;3.88;3.58;;;;;;;;;;10540218;27;20032;-73
2023/07/02 02:13:44;;;;;;;3.85;3.33;;;;;;;;;;10535748;27;20708;-75
2023/07/02 02:18:45;;;;;;;3.40;3.10;;;;;;;;;;10519969;28;20092;-74
2023/07/02 02:23:45;;;;;;;4.13;3.73;;;;;;;;;;10548958;28;20039;-73
2023/07/02 02:28:46;;;;;;;3.35;3.05;;;;;;;;;;10550346;28;20338;-76
2023/07/02 02:33:46;;;;;;;3.37;3.07;;;;;;;;;;10542341;28;20063;-73
2023/07/02 02:38:47;;;;;;;3.88;3.33;;;;;;;;;;10523863;28;20094;-74
2023/07/02 02:43:48;;;;;;;3.45;3.15;;;;;;;;;;10532711;28;21149;-73
2023/07/02 02:48:51;;;;;;;4.15;3.42;;;;;;;;;;10547888;28;20055;-72
2023/07/02 02:53:52;;;;;;;3.88;3.45;;;;;;;;;;10541554;28;20031;-75
2023/07/02 02:58:53;;;;;;;3.50;3.00;;;;;;;;;;10532162;28;20181;-71
2023/07/02 03:03:54;;;;;;;5.28;3.03;;;;;;;;;;10529323;28;20071;-72
2023/07/02 03:08:54;;;;;;;3.20;2.65;;;;;;;;;;10540617;28;20754;-74
2023/07/02 03:13:55;;;;;;;3.22;2.67;;;;;;;;;;10540651;28;20038;-75
2023/07/02 03:18:55;;;;;;;4.23;2.93;;;;;;;;;;10545337;28;20046;-75
2023/07/02 03:23:55;;;;;;;3.50;3.20;;;;;;;;;;10542670;28;20300;-74
2023/07/02 03:28:56;;;;;;;3.13;2.77;;;;;;;;;;10545165;28;20701;-75
2023/07/02 03:33:56;;;;;;;4.50;3.27;;;;;;;;;;10549924;28;20036;-75
2023/07/02 03:38:57;;;;;;;2.90;2.60;;;;;;;;;;10549712;28;20031;-74
2023/07/02 03:43:58;;;;;;;3.08;2.40;;;;;;;;;;10535701;28;20790;-75
2023/07/02 03:48:58;;;;;;;4.33;2.40;;;;;;;;;;10547795;27;20032;-73
2023/07/02 03:53:58;;;;;;;4.13;2.90;;;;;;;;;;10553770;28;20686;-72
2023/07/02 03:58:59;;;;;;;3.28;2.80;;;;;;;;;;10536064;28;20089;-75
2023/07/02 04:03:59;;;;;;;2.50;2.30;;;;;;;;;;10546713;28;20040;-73
2023/07/02 04:08:59;;;;;;;2.90;2.30;;;;;;;;;;10548168;27;20911;-73
2023/07/02 04:14:00;;;;;;;3.13;2.30;;;;;;;;;;10518008;28;20694;-72
2023/07/02 04:19:00;;;;;;;2.50;2.30;;;;;;;;;;10540959;28;20305;-75
2023/07/02 04:24:01;;;;;;;2.95;2.33;;;;;;;;;;10523672;28;20464;-76
2023/07/02 04:29:02;;;;;;;2.30;2.10;;;;;;;;;;10527615;28;20278;-75
2023/07/02 04:34:02;;;;;;;2.80;2.22;;;;;;;;;;10530996;28;20043;-73
2023/07/02 04:39:02;;;;;;;2.97;2.23;;;;;;;;;;10525089;28;20040;-76
2023/07/02 04:44:03;;;;;;;3.50;2.77;;;;;;;;;;10537372;28;20039;-75
2023/07/02 04:49:03;;;;;;;4.20;2.47;;;;;;;;;;10538514;28;20032;-76
2023/07/02 04:54:03;;;;;;;4.03;2.57;;;;;;;;;;10540835;28;20036;-74
2023/07/02 04:59:04;;;;;;;3.55;2.50;;;;;;;;;;10542654;28;20031;-75
2023/07/02 05:04:05;;;;;;;3.07;2.00;;;;;;;;;;10542505;28;20540;-76
2023/07/02 05:09:05;;;;;;;5.25;2.20;;;;;;;;;;10544948;27;20040;-73
2023/07/02 05:14:05;;;;;;;2.33;2.00;;;;;;;;;;10550207;27;20044;-75
2023/07/02 05:19:06;;;;;;;3.90;2.00;;;;;;;;;;10545318;28;20289;-78
2023/07/02 05:24:08;;;;;;;3.33;2.10;;;;;;;;;;10532201;28;20201;-74
2023/07/02 05:29:09;;;;;;;4.05;2.55;;;;;;;;;;10550088;28;20067;-72
2023/07/02 05:34:09;;;;;;;5.10;3.03;;;;;;;;;;10520489;28;20047;-72
2023/07/02 05:39:10;;;;;;;5.43;3.70;;;;;;;;;;10526771;28;20063;-71
2023/07/02 05:44:10;;;;;;;6.37;3.90;;;;;;;;;;10547235;28;20301;-73
2023/07/02 05:49:10;;;;;;;5.77;4.03;;;;;;;;;;10538253;28;20043;-72
2023/07/02 05:54:11;;;;;;;6.40;4.40;;;;;;;;;;10545739;28;20040;-75
2023/07/02 05:59:14;;;;;;;7.30;4.85;;;;;;;;;;10545502;28;20335;-74
2023/07/02 06:04:17;;;;;;;8.95;6.25;;;;;;;;;;10535995;28;20149;-76
2023/07/02 06:09:17;;;;;;;7.60;4.03;;;;;;;;;;10545132;28;20487;-74
2023/07/02 06:14:18;;;;;;;7.60;4.80;;;;;;;;;;10541785;28;20032;-75
2023/07/02 06:19:18;;;;;;;12.98;5.03;;;;;;;;;;10556310;28;20289;-78
2023/07/02 06:24:18;;;;;;;8.40;5.68;;;;;;;;;;10562212;28;20054;-77
2023/07/02 06:29:19;;;;;;;7.97;5.33;;;;;;;;;;10538333;28;20479;-77
2023/07/02 06:34:19;;;;;;;13.00;5.87;;;;;;;;;;10544500;28;20032;-78
2023/07/02 06:39:20;;;;;;;11.27;6.17;;;;;;;;;;10546282;28;20042;-77
2023/07/02 06:44:21;;;;;;;11.88;7.80;;;;;;;;;;10540068;28;20317;-75
2023/07/02 06:49:21;;;;;;;10.40;6.33;;;;;;;;;;10544436;28;20031;-74
2023/07/02 06:54:21;;;;;;;9.20;5.77;;;;;;;;;;10547486;28;20359;-75
2023/07/02 06:59:22;;;;;;;12.50;6.45;;;;;;;;;;10554847;27;20059;-75
2023/07/02 07:04:23;;;;;;;11.07;6.13;;;;;;;;;;10548547;28;20054;-75
2023/07/02 07:09:23;;;;;;;10.13;6.13;;;;;;;;;;10560230;27;20040;-74
2023/07/02 07:14:23;;;;;;;8.10;5.60;;;;;;;;;;10557494;28;20040;-74
2023/07/02 07:19:24;;;;;;;9.20;6.17;;;;;;;;;;10549278;28;20044;-73
2023/07/02 07:24:24;;;;;;;10.77;5.93;;;;;;;;;;10551792;27;20039;-76
2023/07/02 07:29:24;;;;;;;12.90;6.70;;;;;;;;;;10544238;28;20706;-76
2023/07/02 07:34:25;;;;;;;8.43;6.10;;;;;;;;;;10552063;28;21253;-74
2023/07/02 07:39:25;;;;;;;10.40;7.22;;;;;;;;;;10539850;28;20285;-73
2023/07/02 07:44:28;;;;;;;8.57;5.60;;;;;;;;;;10548863;28;20044;-76
2023/07/02 07:49:29;;;;;;;7.57;5.15;;;;;;;;;;10538571;28;20032;-74
2023/07/02 07:54:29;;;;;;;11.23;5.63;;;;;;;;;;10553216;28;20066;-74
2023/07/02 07:59:30;;;;;;;8.77;4.93;;;;;;;;;;10551080;28;20058;-76
2023/07/02 08:04:31;;;;;;;7.43;5.07;;;;;;;;;;10555975;28;20084;-74
2023/07/02 08:09:31;;;;;;;9.43;5.57;;;;;;;;;;10539086;28;20290;-73
2023/07/02 08:14:32;;;;;;;8.10;4.97;;;;;;;;;;10537224;28;20039;-74
2023/07/02 08:19:32;;;;;;;9.77;5.30;;;;;;;;;;10541447;28;20036;-76
2023/07/02 08:24:33;;;;;;;8.53;5.47;;;;;;;;;;10546221;28;20309;-74
2023/07/02 08:29:34;;;;;;;7.00;5.30;;;;;;;;;;10540168;28;21125;-75
2023/07/02 08:34:34;;;;;;;7.13;4.63;;;;;;;;;;10550436;28;20031;-74
2023/07/02 08:39:35;;;;;;;10.23;6.20;;;;;;;;;;10546052;28;20296;-74
2023/07/02 08:44:36;;;;;;;7.43;5.15;;;;;;;;;;10542176;28;20309;-72
2023/07/02 08:49:38;;;;;;;5.67;4.20;;;;;;;;;;10548122;28;20032;-73
2023/07/02 08:54:38;;;;;;;7.75;4.40;;;;;;;;;;10537131;28;20833;-72
2023/07/02 08:59:38;;;;;;;7.82;4.63;;;;;;;;;;10551751;28;20104;-73
2023/07/02 09:04:39;;;;;;;6.87;4.30;;;;;;;;;;10545772;28;20054;-74
2023/07/02 09:09:46;;;;;;;8.20;5.47;;;;;;;;;;10538506;28;20040;-74
2023/07/02 09:14:53;;;;;;;7.53;4.95;;;;;;;;;;10546428;28;20052;-74
2023/07/02 09:19:53;;;;;;;8.38;5.82;;;;;;;;;;10532189;28;20031;-73
2023/07/02 09:24:54;;;;;;;5.40;4.50;;;;;;;;;;10546962;28;20047;-77
2023/07/02 09:29:55;;;;;;;4.88;3.72;;;;;;;;;;10550752;28;20426;-76
2023/07/02 09:34:57;;;;;;;6.63;4.80;;;;;;;;;;10542030;27;20047;-73
2023/07/02 09:39:57;;;;;;;6.80;4.53;;;;;;;;;;10530750;28;20082;-77
2023/07/02 09:44:58;;;;;;;7.20;4.13;;;;;;;;;;10535651;28;20119;-81
2023/07/02 09:50:02;;;;;;;7.18;4.80;;;;;;;;;;10560339;28;20114;-82
2023/07/02 09:55:04;;;;;;;8.25;4.68;;;;;;;;;;10576466;27;20510;-81
2023/07/02 10:00:05;;;;;;;7.60;4.70;;;;;;;;;;10557036;27;20031;-75
2023/07/02 10:05:06;;;;;;;5.95;4.57;;;;;;;;;;10529154;28;20059;-73
2023/07/02 10:10:06;;;;;;;7.27;4.90;;;;;;;;;;10550515;28;20430;-72
2023/07/02 10:15:07;;;;;;;7.18;5.40;;;;;;;;;;10535599;28;20138;-71
2023/07/02 10:20:08;;;;;;;8.52;5.30;;;;;;;;;;10524226;28;20050;-73
2023/07/02 10:25:08;;;;;;;9.68;5.63;;;;;;;;;;10537018;28;20063;-73
2023/07/02 10:30:09;;;;;;;7.20;5.13;;;;;;;;;;10538344;28;20030;-75
2023/07/02 10:35:16;;;;;;;6.65;4.90;;;;;;;;;;10544573;28;20036;-73
2023/07/02 10:40:17;;;;;;;7.68;5.70;;;;;;;;;;10540518;28;20039;-73
2023/07/02 10:45:17;;;;;;;7.57;5.70;;;;;;;;;;10549808;28;20475;-73
2023/07/02 10:50:19;;;;;;;6.93;4.68;;;;;;;;;;10536676;28;20590;-73
2023/07/02 10:55:20;;;;;;;8.77;5.50;;;;;;;;;;10545457;28;20069;-76
2023/07/02 11:00:20;;;;;;;7.78;4.65;;;;;;;;;;10547158;28;20113;-77
2023/07/02 11:05:21;;;;;;;5.25;4.18;;;;;;;;;;10539636;28;20051;-76
2023/07/02 11:10:21;;;;;;;5.87;3.90;;;;;;;;;;10548027;28;20040;-77
2023/07/02 11:15:21;;;;;;;7.07;4.60;;;;;;;;;;10550713;28;20338;-78
2023/07/02 11:20:22;;;;;;;6.10;5.47;;;;;;;;;;10525002;28;21301;-75
2023/07/02 11:25:22;;;;;;;6.88;4.65;;;;;;;;;;10502128;28;20310;-75
2023/07/02 11:30:23;;;;;;;7.90;4.68;;;;;;;;;;10504020;28;20064;-78
2023/07/02 11:35:33;;;;;;;8.40;4.47;;;;;;;;;;10490776;28;20979;-75
2023/07/02 11:40:34;;;;;;;5.88;4.10;;;;;;;;;;10491346;28;20089;-77
2023/07/02 11:45:34;;;;;;;5.47;3.87;;;;;;;;;;10513594;28;20059;-79
2023/07/02 11:50:34;;;;;;;6.63;4.63;;;;;;;;;;10495432;28;20039;-78
2023/07/02 11:55:36;;;;;;;6.67;4.47;;;;;;;;;;10513099;28;20038;-77
2023/07/02 12:00:36;;;;;;;6.53;4.20;;;;;;;;;;10500078;28;20762;-80
2023/07/02 12:05:36;;;;;;;6.40;4.50;;;;;;;;;;10508643;28;20055;-82
2023/07/02 12:10:38;;;;;;;8.25;4.55;;;;;;;;;;10513782;28;20061;-81
2023/07/02 12:15:39;;;;;;;12.17;8.93;;;;;;;;;;10512660;28;20040;-75
2023/07/02 12:20:40;;;;;;;8.25;4.93;;;;;;;;;;10508057;28;20043;-75
2023/07/02 12:25:40;;;;;;;7.47;5.13;;;;;;;;;;10512943;28;20050;-75
2023/07/02 12:30:41;;;;;;;8.98;5.68;;;;;;;;;;10510985;28;20115;-77
2023/07/02 12:35:41;;;;;;;9.20;6.00;;;;;;;;;;10510202;28;20060;-75
2023/07/02 12:40:42;;;;;;;10.87;7.17;;;;;;;;;;10506188;28;20043;-74
2023/07/02 12:45:42;;;;;;;13.83;7.20;;;;;;;;;;10511513;28;20317;-75
2023/07/02 12:50:52;;;;;;;12.90;7.50;;;;;;;;;;10506254;28;20039;-73
2023/07/02 12:55:53;;;;;;;10.73;6.75;;;;;;;;;;10508021;28;20804;-76
2023/07/02 13:00:55;;;;;;;11.77;7.05;;;;;;;;;;10508104;28;20028;-74
2023/07/02 13:05:55;;;;;;;12.65;7.30;;;;;;;;;;10483866;28;20055;-74
2023/07/02 13:10:55;;;;;;;9.93;7.63;;;;;;;;;;10512107;28;20042;-75
2023/07/02 13:15:57;;;;;;;11.20;8.50;;;;;;;;;;10509326;28;20102;-75
2023/07/02 13:20:57;;;;;;;14.82;8.43;;;;;;;;;;10508293;28;20467;-75
2023/07/02 13:25:58;;;;;;;14.83;8.83;;;;;;;;;;10489404;28;20048;-75
2023/07/02 13:30:58;;;;;;;14.10;8.55;;;;;;;;;;10505510;28;20067;-74
2023/07/02 13:35:59;;;;;;;14.43;9.05;;;;;;;;;;10509923;28;20510;-74
2023/07/02 13:41:00;;;;;;;12.77;8.53;;;;;;;;;;10492453;28;20043;-74
2023/07/02 13:46:02;;;;;;;14.45;9.55;;;;;;;;;;10499606;28;20130;-75
2023/07/02 13:51:03;;;;;;;15.65;9.05;;;;;;;;;;10508282;28;20036;-77
2023/07/02 13:56:03;;;;;;;14.48;9.80;;;;;;;;;;10505180;28;20043;-77
2023/07/02 14:01:03;;;;;;;12.13;8.43;;;;;;;;;;10505605;28;20391;-75
2023/07/02 14:06:04;;;;;;;15.37;9.60;;;;;;;;;;10502953;28;20565;-75
2023/07/02 14:11:04;;;;;;;14.37;9.40;;;;;;;;;;10512249;28;20103;-76
2023/07/02 14:16:05;;;;;;;13.27;9.05;;;;;;;;;;10505654;28;20044;-76
2023/07/02 14:21:06;;;;;;;12.50;9.17;;;;;;;;;;10500033;28;20860;-79
2023/07/02 14:26:09;;;;;;;15.68;9.13;;;;;;;;;;10511318;28;20044;-77
2023/07/02 14:31:11;;;;;;;13.88;9.07;;;;;;;;;;10511623;28;20057;-80
2023/07/02 14:36:11;;;;;;;14.77;9.20;;;;;;;;;;10514187;28;20064;-77
2023/07/02 14:41:12;;;;;;;16.42;9.65;;;;;;;;;;10497696;28;20124;-77
2023/07/02 14:46:12;;;;;;;14.73;9.57;;;;;;;;;;10511578;28;20043;-79
2023/07/02 14:51:13;;;;;;;18.13;9.90;;;;;;;;;;10494875;28;20056;-78
2023/07/02 14:56:13;;;;;;;16.02;10.70;;;;;;;;;;10509241;28;20036;-81
2023/07/02 15:01:14;;;;;;;14.60;10.38;;;;;;;;;;10483334;28;20043;-77
2023/07/02 15:06:16;;;;;;;19.02;10.60;;;;;;;;;;10487804;28;20559;-76
2023/07/02 15:11:16;;;;;;;;;;;;;;;;;;10501403;28;20064;-74
2023/07/02 15:16:18;;;;;;;16.60;10.88;;;;;;;;;;10506229;28;20032;-77
2023/07/02 15:21:18;;;;;;;13.77;10.27;;;;;;;;;;10513688;28;20040;-79
2023/07/02 15:26:19;;;;;;;17.25;10.40;;;;;;;;;;10513610;28;20053;-77
2023/07/02 15:31:19;;;;;;;16.88;10.48;;;;;;;;;;10514376;28;20097;-76
2023/07/02 15:36:21;;;;;;;14.43;9.47;;;;;;;;;;10513672;28;20039;-81
2023/07/02 15:41:21;;;;;;;16.90;10.35;;;;;;;;;;10511255;28;20363;-78
2023/07/02 15:46:22;;;;;;;17.17;10.70;;;;;;;;;;10521153;28;20048;-83
2023/07/02 15:51:24;;;;;;;16.70;9.93;;;;;;;;;;10505406;28;20069;-79
2023/07/02 15:56:26;;;;;;;18.02;10.80;;;;;;;;;;10518564;28;20539;-79
2023/07/02 16:01:27;;;;;;;18.47;10.80;;;;;;;;;;10496701;28;20126;-78
2023/07/02 16:06:33;;;;;;;27.25;20.70;;;;;;;;;;10517843;28;20039;-77
2023/07/02 16:11:35;;;;;;;15.18;10.48;;;;;;;;;;10519555;28;20043;-79
2023/07/02 16:16:39;;;;;;;16.48;11.50;;;;;;;;;;10526881;28;20032;-79
2023/07/02 16:21:40;;;;;;;18.52;12.20;;;;;;;;;;10519834;28;20131;-78
2023/07/02 16:26:40;;;;;;;17.27;11.25;;;;;;;;;;10526626;28;20036;-80
2023/07/02 16:31:46;;;;;;;16.77;11.10;;;;;;;;;;10550095;28;20070;-78
2023/07/02 16:36:47;;;;;;;17.45;11.25;;;;;;;;;;10551202;28;20285;-79
2023/07/02 16:41:48;;;;;;;21.37;12.80;;;;;;;;;;10504008;28;20043;-79
2023/07/02 16:46:51;;;;;;;17.35;11.00;;;;;;;;;;10556968;28;20297;-80
2023/07/02 16:51:52;;;;;;;18.52;11.52;;;;;;;;;;10530044;28;20020;-75
2023/07/02 16:56:53;;;;;;;16.20;10.43;;;;;;;;;;10523596;28;20095;-78
2023/07/02 17:01:58;;;;;;;14.32;10.43;;;;;;;;;;10508084;28;20055;-76
2023/07/02 17:06:59;;;;;;;15.27;10.48;;;;;;;;;;10507103;28;20028;-78
2023/07/02 17:12:03;;;;;;;17.02;11.30;;;;;;;;;;10506084;28;20039;-76
2023/07/02 17:17:05;;;;;;;18.65;12.00;;;;;;;;;;10503611;28;20032;-76
2023/07/02 17:22:07;;;;;;;18.35;11.07;;;;;;;;;;10499956;28;20841;-83
2023/07/02 17:27:08;;;;;;;19.02;11.25;;;;;;;;;;10508198;28;20055;-74
2023/07/02 17:32:09;;;;;;;16.17;11.38;;;;;;;;;;10504974;28;20036;-75
2023/07/02 17:37:12;;;;;;;17.35;11.07;;;;;;;;;;10504031;28;20043;-75
2023/07/02 17:42:13;;;;;;;16.40;11.38;;;;;;;;;;10490281;28;20134;-76
2023/07/02 17:47:24;;;;;;;16.80;11.32;;;;;;;;;;10505315;28;20036;-74
2023/07/02 17:52:25;;;;;;;15.88;10.70;;;;;;;;;;10503848;28;20032;-78
2023/07/02 17:57:25;;;;;;;18.43;11.90;;;;;;;;;;10488164;28;20475;-78
2023/07/02 18:02:25;;;;;;;17.37;11.60;;;;;;;;;;10509286;28;20036;-76
2023/07/02 18:07:26;;;;;;;16.27;11.37;;;;;;;;;;10505571;28;20286;-80
2023/07/02 18:12:28;;;;;;;16.87;11.57;;;;;;;;;;10502783;28;20411;-73
2023/07/02 18:17:28;;;;;;;17.45;11.75;;;;;;;;;;10501199;28;20305;-75
2023/07/02 18:22:28;;;;;;;17.92;10.70;;;;;;;;;;10502920;28;20480;-74
2023/07/02 18:27:29;;;;;;;19.97;12.57;;;;;;;;;;10492044;28;20040;-80
2023/07/02 18:32:29;;;;;;;19.37;12.47;;;;;;;;;;10517941;28;20028;-77
2023/07/02 18:37:30;;;;;;;16.90;10.82;;;;;;;;;;10505165;28;20655;-77
2023/07/02 18:42:30;;;;;;;18.83;11.50;;;;;;;;;;10498728;28;20039;-77
2023/07/02 18:47:30;;;;;;;17.03;11.00;;;;;;;;;;10504937;28;20033;-77
2023/07/02 18:52:31;;;;;;;19.90;11.73;;;;;;;;;;10508786;28;20039;-76
2023/07/02 18:57:31;;;;;;;17.23;11.97;;;;;;;;;;10511618;28;20028;-75
2023/07/02 19:02:35;;;;;;;19.27;12.60;;;;;;;;;;10510388;28;20047;-76
2023/07/02 19:07:35;;;;;;;18.80;11.80;;;;;;;;;;10519108;28;20122;-76
2023/07/02 19:12:36;;;;;;;19.10;12.27;;;;;;;;;;10518524;28;20028;-78
2023/07/02 19:17:36;;;;;;;20.60;12.80;;;;;;;;;;10517626;28;20296;-76
2023/07/02 19:22:37;;;;;;;20.33;12.18;;;;;;;;;;10513884;28;20036;-78
2023/07/02 19:27:38;;;;;;;18.40;12.30;;;;;;;;;;10495559;28;20051;-76
2023/07/02 19:32:38;;;;;;;18.52;11.95;;;;;;;;;;10490033;28;20286;-76
2023/07/02 19:37:38;;;;;;;18.70;12.82;;;;;;;;;;10509508;28;20040;-75
2023/07/02 19:42:39;;;;;;;20.80;12.23;;;;;;;;;;10512800;28;20039;-74
2023/07/02 19:47:39;;;;;;;21.75;12.52;;;;;;;;;;10508184;28;20035;-76
2023/07/02 19:52:40;;;;;;;19.20;11.80;;;;;;;;;;10509738;28;20060;-76
2023/07/02 19:57:40;;;;;;;19.73;13.80;;;;;;;;;;10506071;28;20036;-80
2023/07/02 20:02:41;;;;;;;19.80;12.70;;;;;;;;;;10494780;28;20032;-80
2023/07/02 20:07:41;;;;;;;22.02;13.13;;;;;;;;;;10512140;28;20040;-81
2023/07/02 20:12:41;;;;;;;18.13;12.50;;;;;;;;;;10510450;28;20041;-81
2023/07/02 20:17:42;;;;;;;21.67;13.07;;;;;;;;;;10511466;28;20043;-78
2023/07/02 20:22:46;;;;;;;20.80;13.10;;;;;;;;;;10510973;28;20743;-79
2023/07/02 20:27:47;;;;;;;18.25;12.23;;;;;;;;;;10488366;28;20104;-80
2023/07/02 20:32:47;;;;;;;20.60;13.70;;;;;;;;;;10511449;28;20158;-79
2023/07/02 20:37:50;;;;;;;20.97;13.10;;;;;;;;;;10509052;28;20289;-81
2023/07/02 20:42:52;;;;;;;23.08;13.32;;;;;;;;;;10503866;28;20429;-80
2023/07/02 20:47:52;;;;;;;18.02;12.93;;;;;;;;;;10509114;28;20047;-80
2023/07/02 20:52:53;;;;;;;19.80;12.03;;;;;;;;;;10519485;28;20039;-79
2023/07/02 20:57:53;;;;;;;22.35;13.13;;;;;;;;;;10516692;28;20158;-83
2023/07/02 21:02:53;;;;;;;17.75;11.50;;;;;;;;;;10497615;28;20036;-79
2023/07/02 21:07:55;;;;;;;19.20;11.90;;;;;;;;;;10482734;28;20567;-80
2023/07/02 21:12:56;;;;;;;19.48;12.13;;;;;;;;;;10512011;28;20766;-78
2023/07/02 21:17:57;;;;;;;19.90;12.77;;;;;;;;;;10505978;28;20029;-80
2023/07/02 21:22:57;;;;;;;20.30;12.83;;;;;;;;;;10505714;28;20096;-79
2023/07/02 21:27:59;;;;;;;21.92;13.25;;;;;;;;;;10508991;28;20491;-79
2023/07/02 21:33:01;;;;;;;22.08;13.20;;;;;;;;;;10503146;28;20031;-78
2023/07/02 21:38:01;;;;;;;22.83;13.37;;;;;;;;;;10506853;28;20028;-77
2023/07/02 21:43:01;;;;;;;22.07;13.03;;;;;;;;;;10509526;28;20417;-79
2023/07/02 21:48:02;;;;;;;22.10;13.97;;;;;;;;;;10500213;28;20032;-78
2023/07/02 21:53:02;;;;;;;20.98;13.00;;;;;;;;;;10506757;28;20050;-79
2023/07/02 21:58:03;;;;;;;21.93;13.33;;;;;;;;;;10501029;28;20063;-78
2023/07/02 22:03:03;;;;;;;20.80;13.07;;;;;;;;;;10505837;28;20046;-79
2023/07/02 22:08:04;;;;;;;21.47;13.23;;;;;;;;;;10501485;28;20042;-81
2023/07/02 22:13:05;;;;;;;23.05;13.52;;;;;;;;;;10490805;28;20766;-80
2023/07/02 22:18:05;;;;;;;21.63;12.70;;;;;;;;;;10489857;28;20289;-80
2023/07/02 22:23:06;;;;;;;20.48;12.40;;;;;;;;;;10507997;28;20196;-78
2023/07/02 22:28:06;;;;;;;21.40;12.13;;;;;;;;;;10504862;28;20032;-78
2023/07/02 22:33:07;;;;;;;23.87;13.50;;;;;;;;;;10484744;28;20040;-76
2023/07/02 22:38:10;;;;;;;19.03;12.77;;;;;;;;;;10504316;28;20028;-77
2023/07/02 22:43:10;;;;;;;20.50;13.50;;;;;;;;;;10507309;28;20511;-77
2023/07/02 22:48:10;;;;;;;26.50;13.37;;;;;;;;;;10507865;28;20035;-79
2023/07/02 22:53:11;;;;;;;24.13;13.90;;;;;;;;;;10507293;28;20405;-79
2023/07/02 22:58:11;;;;;;;21.27;13.67;;;;;;;;;;10505984;28;20060;-79
2023/07/02 23:03:12;;;;;;;21.73;13.10;;;;;;;;;;10498492;28;20144;-78
2023/07/02 23:08:13;;;;;;;21.52;12.30;;;;;;;;;;10504668;28;20302;-77
2023/07/02 23:13:13;;;;;;;21.17;13.10;;;;;;;;;;10505164;28;20036;-78
2023/07/02 23:18:13;;;;;;;24.63;14.00;;;;;;;;;;10500734;28;20040;-79
2023/07/02 23:23:15;;;;;;;21.10;12.77;;;;;;;;;;10502490;28;20325;-78
2023/07/02 23:28:16;;;;;;;25.10;13.25;;;;;;;;;;10508785;28;20468;-78
2023/07/02 23:33:16;;;;;;;25.25;14.23;;;;;;;;;;10505894;28;20039;-79
2023/07/02 23:38:18;;;;;;;22.40;13.27;;;;;;;;;;10509445;28;20036;-80
2023/07/02 23:43:18;;;;;;;22.63;14.03;;;;;;;;;;10527696;28;20039;-78
2023/07/02 23:48:19;;;;;;;23.53;13.43;;;;;;;;;;10516097;28;20044;-78
2023/07/02 23:53:20;;;;;;;21.87;13.10;;;;;;;;;;10525961;28;20123;-78
2023/07/02 23:58:20;;;;;;;25.65;14.43;;;;;;;;;;10526929;28;20298;-78
